createdAt,value
2018-05-15T00:00:01.711Z,22.70
2018-05-15T00:02:29.949Z,22.70
2018-05-15T00:04:58.194Z,22.70
2018-05-15T00:07:27.193Z,22.60
2018-05-15T00:09:56.216Z,22.60
2018-05-15T00:12:24.464Z,22.60
2018-05-15T00:14:53.488Z,22.60
2018-05-15T00:17:21.725Z,22.50
2018-05-15T00:19:49.968Z,22.60
2018-05-15T00:22:18.237Z,22.60
2018-05-15T00:24:46.480Z,22.40
2018-05-15T00:27:15.484Z,22.10
2018-05-15T00:29:43.752Z,22.00
2018-05-15T00:32:12.764Z,22.00
2018-05-15T00:34:41.068Z,21.90
2018-05-15T00:37:09.309Z,22.00
2018-05-15T00:39:38.331Z,22.10
2018-05-15T00:42:07.333Z,22.10
2018-05-15T00:44:35.642Z,22.10
2018-05-15T00:47:04.592Z,22.10
2018-05-15T00:49:33.604Z,22.00
2018-05-15T00:52:01.879Z,22.00
2018-05-15T00:54:30.139Z,22.10
2018-05-15T00:56:59.261Z,22.00
2018-05-15T00:59:27.536Z,22.00
2018-05-15T01:01:56.596Z,22.10
2018-05-15T01:04:24.843Z,22.00
2018-05-15T01:06:53.927Z,21.90
2018-05-15T01:09:22.194Z,21.90
2018-05-15T01:11:51.209Z,21.70
2018-05-15T01:14:19.507Z,21.70
2018-05-15T01:16:47.771Z,21.70
2018-05-15T01:19:16.041Z,21.70
2018-05-15T01:21:44.316Z,21.60
2018-05-15T01:24:13.333Z,21.30
2018-05-15T01:26:41.574Z,21.30
2018-05-15T01:29:09.808Z,21.20
2018-05-15T01:31:38.063Z,21.00
2018-05-15T01:34:06.333Z,21.10
2018-05-15T01:36:34.643Z,21.20
2018-05-15T01:39:02.888Z,21.30
2018-05-15T01:41:31.184Z,21.30
2018-05-15T01:44:00.351Z,21.30
2018-05-15T01:46:28.608Z,21.30
2018-05-15T01:48:56.855Z,21.30
2018-05-15T01:51:25.129Z,21.30
2018-05-15T01:53:53.379Z,21.40
2018-05-15T01:56:22.406Z,21.30
2018-05-15T01:58:50.697Z,21.30
2018-05-15T02:01:18.952Z,21.30
2018-05-15T02:03:47.970Z,21.10
2018-05-15T02:06:16.238Z,20.90
2018-05-15T02:08:44.513Z,21.00
2018-05-15T02:11:13.536Z,20.90
2018-05-15T02:13:41.790Z,20.90
2018-05-15T02:16:10.837Z,20.30
2018-05-15T02:18:39.928Z,19.80
2018-05-15T02:21:08.219Z,20.10
2018-05-15T02:23:36.468Z,20.00
2018-05-15T02:26:04.748Z,19.80
2018-05-15T02:28:32.999Z,20.00
2018-05-15T02:31:02.025Z,20.60
2018-05-15T02:33:30.276Z,20.20
2018-05-15T02:35:59.307Z,20.60
2018-05-15T02:38:27.564Z,20.40
2018-05-15T02:40:56.571Z,20.50
2018-05-15T02:43:25.579Z,20.40
2018-05-15T02:45:53.812Z,20.30
2018-05-15T02:48:22.859Z,20.20
2018-05-15T02:50:51.132Z,20.30
2018-05-15T02:53:19.372Z,20.40
2018-05-15T02:55:47.643Z,20.50
2018-05-15T02:58:15.861Z,20.50
2018-05-15T03:00:44.131Z,20.40
2018-05-15T03:03:13.167Z,20.20
2018-05-15T03:05:41.414Z,20.10
2018-05-15T03:08:10.418Z,20.10
2018-05-15T03:10:38.690Z,19.90
2018-05-15T03:13:07.685Z,20.00
2018-05-15T03:15:35.969Z,19.50
2018-05-15T03:18:04.961Z,19.90
2018-05-15T03:20:33.960Z,19.70
2018-05-15T03:23:02.976Z,19.60
2018-05-15T03:25:31.251Z,19.90
2018-05-15T03:27:59.802Z,19.40
2018-05-15T03:30:28.052Z,19.40
2018-05-15T03:32:56.335Z,19.00
2018-05-15T03:35:24.599Z,19.20
2018-05-15T03:37:52.873Z,19.10
2018-05-15T03:40:21.115Z,19.30
2018-05-15T03:42:50.121Z,19.60
2018-05-15T03:45:19.151Z,19.70
2018-05-15T03:47:47.418Z,19.50
2018-05-15T03:50:15.685Z,19.70
2018-05-15T03:52:43.928Z,19.20
2018-05-15T03:55:12.176Z,19.70
2018-05-15T03:57:40.401Z,19.70
2018-05-15T04:00:21.120Z,19.80
2018-05-15T04:03:01.154Z,19.90
2018-05-15T04:05:41.326Z,19.90
2018-05-15T04:08:14.915Z,20.00
2018-05-15T04:10:43.254Z,19.80
2018-05-15T04:13:11.440Z,19.90
2018-05-15T04:15:40.460Z,19.90
2018-05-15T04:18:08.729Z,19.80
2018-05-15T04:20:37.752Z,19.90
2018-05-15T04:23:06.006Z,20.00
2018-05-15T04:25:35.009Z,19.80
2018-05-15T04:28:04.156Z,19.80
2018-05-15T04:30:33.112Z,19.60
2018-05-15T04:33:02.199Z,19.70
2018-05-15T04:35:31.229Z,19.70
2018-05-15T04:37:59.462Z,19.70
2018-05-15T04:40:28.476Z,19.30
2018-05-15T04:42:56.744Z,19.30
2018-05-15T04:45:25.777Z,19.20
2018-05-15T04:47:54.032Z,19.00
2018-05-15T04:50:22.296Z,19.10
2018-05-15T04:52:50.554Z,19.20
2018-05-15T04:55:18.771Z,19.20
2018-05-15T04:57:47.804Z,18.80
2018-05-15T05:00:16.065Z,19.20
2018-05-15T05:02:44.316Z,19.30
2018-05-15T05:05:12.568Z,19.20
2018-05-15T05:07:40.812Z,19.10
2018-05-15T05:10:09.124Z,19.30
2018-05-15T05:12:37.371Z,19.40
2018-05-15T05:15:05.620Z,19.30
2018-05-15T05:17:34.624Z,19.30
2018-05-15T05:20:03.644Z,19.40
2018-05-15T05:22:31.869Z,19.40
2018-05-15T05:25:00.135Z,19.50
2018-05-15T05:27:28.366Z,19.40
2018-05-15T05:29:57.361Z,19.30
2018-05-15T05:32:26.372Z,19.50
2018-05-15T05:34:54.615Z,19.50
2018-05-15T05:37:22.873Z,19.60
2018-05-15T05:39:51.110Z,19.60
2018-05-15T05:42:19.384Z,19.30
2018-05-15T05:44:48.411Z,19.40
2018-05-15T05:47:17.576Z,19.40
2018-05-15T05:49:46.573Z,19.20
2018-05-15T05:52:15.600Z,19.40
2018-05-15T05:54:43.838Z,19.20
2018-05-15T05:57:12.839Z,19.20
2018-05-15T05:59:41.875Z,19.30
2018-05-15T06:02:10.113Z,19.10
2018-05-15T06:04:39.148Z,19.40
2018-05-15T06:07:07.390Z,19.20
2018-05-15T06:09:35.671Z,19.30
2018-05-15T06:12:03.899Z,19.70
2018-05-15T06:14:32.165Z,19.70
2018-05-15T06:17:01.177Z,19.40
2018-05-15T06:19:29.417Z,19.50
2018-05-15T06:21:57.714Z,19.40
2018-05-15T06:24:25.928Z,19.50
2018-05-15T06:26:54.184Z,19.40
2018-05-15T06:29:22.454Z,19.60
2018-05-15T06:31:51.453Z,19.70
2018-05-15T06:34:19.709Z,19.80
2018-05-15T06:36:48.722Z,19.80
2018-05-15T06:39:17.001Z,19.90
2018-05-15T06:41:45.996Z,19.90
2018-05-15T06:44:15.020Z,19.80
2018-05-15T06:46:43.265Z,19.90
2018-05-15T06:49:12.301Z,20.00
2018-05-15T06:51:40.537Z,19.80
2018-05-15T06:54:08.794Z,19.90
2018-05-15T06:56:37.048Z,20.00
2018-05-15T06:59:05.284Z,20.10
2018-05-15T07:01:34.320Z,20.40
2018-05-15T07:04:02.549Z,20.30
2018-05-15T07:06:30.817Z,20.30
2018-05-15T07:08:59.072Z,20.30
2018-05-15T07:11:27.332Z,20.30
2018-05-15T07:13:55.616Z,20.20
2018-05-15T07:16:24.624Z,20.50
2018-05-15T07:18:52.854Z,20.30
2018-05-15T07:21:21.111Z,20.60
2018-05-15T07:23:49.360Z,20.60
2018-05-15T07:26:17.604Z,20.50
2018-05-15T07:28:46.617Z,20.70
2018-05-15T07:31:15.602Z,20.60
2018-05-15T07:33:44.640Z,20.80
2018-05-15T07:36:12.881Z,20.60
2018-05-15T07:38:41.893Z,20.70
2018-05-15T07:41:10.143Z,20.70
2018-05-15T07:43:38.400Z,20.70
2018-05-15T07:46:06.673Z,21.00
2018-05-15T07:48:34.906Z,20.70
2018-05-15T07:51:03.184Z,20.70
2018-05-15T07:53:31.532Z,20.60
2018-05-15T07:56:00.462Z,20.90
2018-05-15T07:58:29.701Z,20.70
2018-05-15T08:00:58.325Z,20.80
2018-05-15T08:03:26.770Z,21.10
2018-05-15T08:05:56.184Z,21.10
2018-05-15T08:08:24.411Z,21.00
2018-05-15T08:10:52.703Z,21.10
2018-05-15T08:13:21.723Z,21.30
2018-05-15T08:15:49.984Z,21.20
2018-05-15T08:18:18.995Z,21.40
2018-05-15T08:20:47.283Z,21.40
2018-05-15T08:23:15.535Z,21.30
2018-05-15T08:25:44.549Z,21.20
2018-05-15T08:28:12.798Z,21.00
2018-05-15T08:30:41.025Z,21.20
2018-05-15T08:33:09.290Z,21.00
2018-05-15T08:35:37.535Z,21.10
2018-05-15T08:38:05.797Z,21.10
2018-05-15T08:40:34.054Z,21.20
2018-05-15T08:43:02.294Z,21.20
2018-05-15T08:45:31.308Z,21.10
2018-05-15T08:47:59.537Z,20.90
2018-05-15T08:50:27.808Z,21.20
2018-05-15T08:52:56.051Z,21.30
2018-05-15T08:55:24.334Z,21.30
2018-05-15T08:57:52.578Z,21.20
2018-05-15T09:00:20.847Z,21.10
2018-05-15T09:02:49.151Z,21.10
2018-05-15T09:05:18.181Z,21.30
2018-05-15T09:07:46.454Z,21.30
2018-05-15T09:10:14.719Z,21.40
2018-05-15T09:12:43.721Z,21.60
2018-05-15T09:15:11.991Z,21.60
2018-05-15T09:17:41.047Z,21.70
2018-05-15T09:20:09.288Z,21.70
2018-05-15T09:22:37.545Z,21.60
2018-05-15T09:25:06.552Z,21.70
2018-05-15T09:27:34.825Z,21.70
2018-05-15T09:30:03.842Z,21.80
2018-05-15T09:32:32.191Z,21.70
2018-05-15T09:35:00.444Z,21.80
2018-05-15T09:37:28.706Z,22.00
2018-05-15T09:39:56.977Z,22.10
2018-05-15T09:42:25.221Z,22.10
2018-05-15T09:44:53.471Z,21.90
2018-05-15T09:47:21.738Z,21.80
2018-05-15T09:49:49.995Z,22.00
2018-05-15T09:52:18.256Z,22.20
2018-05-15T09:54:46.491Z,22.30
2018-05-15T09:57:14.737Z,22.30
2018-05-15T09:59:43.025Z,22.40
2018-05-15T10:02:11.264Z,22.60
2018-05-15T10:04:40.308Z,22.90
2018-05-15T10:07:09.405Z,23.00
2018-05-15T10:09:37.645Z,23.00
2018-05-15T10:12:06.726Z,23.10
2018-05-15T10:14:34.970Z,23.10
2018-05-15T10:17:03.246Z,23.20
2018-05-15T10:19:31.522Z,23.10
2018-05-15T10:21:59.777Z,23.00
2018-05-15T10:24:28.018Z,22.90
2018-05-15T10:26:56.257Z,23.00
2018-05-15T10:29:24.511Z,23.00
2018-05-15T10:31:53.548Z,22.90
2018-05-15T10:34:21.785Z,22.80
2018-05-15T10:36:50.813Z,22.90
2018-05-15T10:39:19.060Z,22.90
2018-05-15T10:41:48.099Z,23.30
2018-05-15T10:44:16.334Z,23.30
2018-05-15T10:46:45.338Z,23.40
2018-05-15T10:49:14.399Z,23.50
2018-05-15T10:51:42.655Z,23.40
2018-05-15T10:54:10.904Z,23.50
2018-05-15T10:56:39.145Z,23.60
2018-05-15T10:59:07.405Z,23.60
2018-05-15T11:01:35.641Z,23.70
2018-05-15T11:04:03.907Z,23.70
2018-05-15T11:06:32.949Z,23.90
2018-05-15T11:09:01.264Z,23.90
2018-05-15T11:11:29.507Z,23.80
2018-05-15T11:13:57.775Z,23.90
2018-05-15T11:16:26.032Z,23.80
2018-05-15T11:18:55.039Z,24.00
2018-05-15T11:21:35.090Z,24.00
2018-05-15T11:27:01.012Z,24.20
2018-05-15T11:29:29.404Z,24.30
2018-05-15T11:31:57.679Z,24.30
2018-05-15T11:34:26.679Z,24.40
2018-05-15T11:36:55.673Z,24.50
2018-05-15T11:39:24.753Z,24.50
2018-05-15T11:41:53.053Z,24.50
2018-05-15T11:44:21.246Z,24.50
2018-05-15T11:46:49.570Z,24.50
2018-05-15T11:49:18.629Z,24.30
2018-05-15T11:51:47.084Z,24.30
2018-05-15T11:54:15.074Z,24.40
2018-05-15T11:56:44.100Z,24.40
2018-05-15T11:59:12.353Z,24.40
2018-05-15T12:01:41.372Z,24.40
2018-05-15T12:04:10.431Z,24.30
2018-05-15T12:06:38.901Z,24.50
2018-05-15T12:09:07.938Z,24.70
2018-05-15T12:11:36.115Z,24.60
2018-05-15T12:14:05.154Z,24.80
2018-05-15T12:16:33.425Z,24.70
2018-05-15T12:19:01.705Z,24.70
2018-05-15T12:21:29.952Z,24.80
2018-05-15T12:23:58.990Z,24.90
2018-05-15T12:26:27.232Z,24.90
2018-05-15T12:28:56.277Z,24.80
2018-05-15T12:31:24.509Z,24.80
2018-05-15T12:33:52.750Z,24.70
2018-05-15T12:36:21.008Z,24.80
2018-05-15T12:38:49.246Z,24.80
2018-05-15T12:41:18.299Z,24.90
2018-05-15T12:43:46.604Z,24.90
2018-05-15T12:46:14.861Z,25.00
2018-05-15T12:48:43.125Z,25.00
2018-05-15T12:51:11.391Z,24.90
2018-05-15T12:53:40.234Z,24.90
2018-05-15T12:56:08.489Z,25.00
2018-05-15T12:58:36.758Z,25.10
2018-05-15T13:01:04.988Z,25.20
2018-05-15T13:03:34.030Z,25.20
2018-05-15T13:06:02.284Z,25.20
2018-05-15T13:08:30.539Z,25.20
2018-05-15T13:10:59.545Z,25.10
2018-05-15T13:13:28.558Z,25.00
2018-05-15T13:15:56.813Z,25.00
2018-05-15T13:18:25.178Z,24.80
2018-05-15T13:20:54.112Z,24.90
2018-05-15T13:23:23.116Z,25.10
2018-05-15T13:25:51.375Z,25.10
2018-05-15T13:28:20.450Z,25.20
2018-05-15T13:30:48.705Z,25.20
2018-05-15T13:33:16.979Z,25.10
2018-05-15T13:35:45.216Z,25.00
2018-05-15T13:38:14.260Z,25.10
2018-05-15T13:40:42.541Z,25.10
2018-05-15T13:43:10.765Z,25.20
2018-05-15T13:45:39.782Z,25.50
2018-05-15T13:48:08.821Z,25.40
2018-05-15T13:50:37.110Z,25.40
2018-05-15T13:53:06.071Z,25.30
2018-05-15T13:55:34.338Z,25.30
2018-05-15T13:58:03.371Z,25.30
2018-05-15T14:00:31.691Z,25.40
2018-05-15T14:02:59.921Z,25.50
2018-05-15T14:05:28.180Z,25.40
2018-05-15T14:07:56.461Z,25.20
2018-05-15T14:10:24.721Z,25.00
2018-05-15T14:12:52.958Z,25.00
2018-05-15T14:15:21.254Z,24.90
2018-05-15T14:17:49.484Z,24.90
2018-05-15T14:20:17.766Z,25.10
2018-05-15T14:22:46.055Z,25.30
2018-05-15T14:25:14.324Z,25.50
2018-05-15T14:27:42.610Z,25.50
2018-05-15T14:30:10.858Z,25.60
2018-05-15T14:32:39.124Z,25.50
2018-05-15T14:35:08.151Z,25.40
2018-05-15T14:37:37.188Z,25.40
2018-05-15T14:40:05.457Z,25.40
2018-05-15T14:42:45.694Z,25.40
2018-05-15T14:45:15.789Z,25.40
2018-05-15T14:47:44.050Z,25.40
2018-05-15T14:50:12.289Z,25.50
2018-05-15T14:52:40.559Z,25.60
2018-05-15T14:55:08.836Z,25.50
2018-05-15T14:57:37.162Z,25.40
2018-05-15T15:00:05.461Z,25.30
2018-05-15T15:02:33.671Z,25.30
2018-05-15T15:05:02.724Z,25.40
2018-05-15T15:07:31.395Z,25.40
2018-05-15T15:10:00.409Z,25.30
2018-05-15T15:12:28.635Z,25.30
2018-05-15T15:14:57.660Z,25.20
2018-05-15T15:17:26.045Z,25.20
2018-05-15T15:19:54.244Z,25.30
2018-05-15T15:22:22.513Z,25.30
2018-05-15T15:24:50.754Z,25.40
2018-05-15T15:27:19.767Z,25.40
2018-05-15T15:29:48.038Z,25.40
2018-05-15T15:32:16.254Z,25.40
2018-05-15T15:34:44.537Z,25.30
2018-05-15T15:37:12.821Z,25.30
2018-05-15T15:39:41.065Z,25.20
2018-05-15T15:42:10.164Z,25.30
2018-05-15T15:44:38.379Z,25.30
2018-05-15T15:47:06.655Z,25.20
2018-05-15T15:49:34.920Z,25.20
2018-05-15T15:52:03.172Z,25.20
2018-05-15T15:54:32.221Z,25.30
2018-05-15T15:57:00.454Z,25.40
2018-05-15T15:59:29.456Z,25.60
2018-05-15T16:01:58.474Z,25.60
2018-05-15T16:04:26.851Z,25.60
2018-05-15T16:06:55.100Z,25.80
2018-05-15T16:09:24.133Z,25.90
2018-05-15T16:11:52.379Z,25.90
2018-05-15T16:14:21.521Z,25.70
2018-05-15T16:16:49.801Z,25.70
2018-05-15T16:19:18.084Z,25.50
2018-05-15T16:21:46.344Z,25.50
2018-05-15T16:24:14.577Z,25.50
2018-05-15T16:26:42.829Z,25.40
2018-05-15T16:29:11.084Z,25.30
2018-05-15T16:31:40.112Z,25.10
2018-05-15T16:34:08.372Z,25.10
2018-05-15T16:36:36.672Z,25.00
2018-05-15T16:39:05.764Z,25.00
2018-05-15T16:41:34.067Z,25.00
2018-05-15T16:44:03.106Z,25.10
2018-05-15T16:46:32.157Z,25.10
2018-05-15T16:49:00.421Z,25.10
2018-05-15T16:51:28.668Z,25.10
2018-05-15T16:53:57.711Z,25.00
2018-05-15T16:56:26.017Z,25.00
2018-05-15T16:58:54.292Z,25.00
2018-05-15T17:01:22.609Z,24.90
2018-05-15T17:03:51.640Z,25.00
2018-05-15T17:06:19.924Z,25.00
2018-05-15T17:08:48.197Z,25.10
2018-05-15T17:11:16.425Z,25.10
2018-05-15T17:13:44.737Z,25.10
2018-05-15T17:16:12.948Z,25.00
2018-05-15T17:18:41.205Z,24.90
2018-05-15T17:21:09.511Z,24.90
2018-05-15T17:23:37.765Z,24.90
2018-05-15T17:26:06.058Z,24.80
2018-05-15T17:28:34.330Z,24.80
2018-05-15T17:31:02.592Z,24.80
2018-05-15T17:33:31.609Z,24.70
2018-05-15T17:35:59.870Z,24.70
2018-05-15T17:38:28.913Z,24.60
2018-05-15T17:40:57.247Z,24.60
2018-05-15T17:43:25.416Z,24.60
2018-05-15T17:45:53.660Z,24.60
2018-05-15T17:48:21.935Z,24.60
2018-05-15T17:50:50.200Z,24.60
2018-05-15T17:53:18.490Z,24.60
2018-05-15T17:55:46.734Z,24.60
2018-05-15T17:58:15.752Z,24.50
2018-05-15T18:00:44.010Z,24.50
2018-05-15T18:03:13.028Z,24.60
2018-05-15T18:05:41.279Z,24.50
2018-05-15T18:08:10.305Z,24.50
2018-05-15T18:10:38.587Z,24.60
2018-05-15T18:13:06.879Z,24.50
2018-05-15T18:15:35.140Z,24.50
2018-05-15T18:18:03.409Z,24.50
2018-05-15T18:20:32.408Z,24.50
2018-05-15T18:23:01.439Z,24.40
2018-05-15T18:25:29.692Z,24.40
2018-05-15T18:27:58.706Z,24.30
2018-05-15T18:30:26.973Z,24.30
2018-05-15T18:32:55.224Z,24.30
2018-05-15T18:35:23.477Z,24.20
2018-05-15T18:37:51.734Z,24.20
2018-05-15T18:40:20.017Z,24.20
2018-05-15T18:42:48.265Z,24.10
2018-05-15T18:45:17.316Z,24.10
2018-05-15T18:47:45.572Z,24.10
2018-05-15T18:50:13.808Z,24.10
2018-05-15T18:52:42.829Z,24.10
2018-05-15T18:55:11.069Z,24.10
2018-05-15T18:57:39.331Z,24.10
2018-05-15T19:00:07.588Z,24.10
2018-05-15T19:02:35.796Z,24.00
2018-05-15T19:05:04.067Z,24.00
2018-05-15T19:07:32.333Z,24.00
2018-05-15T19:10:00.603Z,23.90
2018-05-15T19:12:29.632Z,24.00
2018-05-15T19:14:57.890Z,24.00
2018-05-15T19:17:26.122Z,24.00
2018-05-15T19:19:55.166Z,24.00
2018-05-15T19:22:23.385Z,24.00
2018-05-15T19:24:51.681Z,24.10
2018-05-15T19:27:19.904Z,24.00
2018-05-15T19:29:48.171Z,24.10
2018-05-15T19:32:17.235Z,24.10
2018-05-15T19:34:51.203Z,24.20
2018-05-15T19:37:19.458Z,24.30
2018-05-15T19:39:48.452Z,24.40
2018-05-15T19:42:16.733Z,24.40
2018-05-15T19:44:45.741Z,24.30
2018-05-15T19:47:14.024Z,24.20
2018-05-15T19:49:42.269Z,24.20
2018-05-15T19:52:11.336Z,24.10
2018-05-15T19:54:39.610Z,24.10
2018-05-15T19:57:07.978Z,24.00
2018-05-15T19:59:36.225Z,24.00
2018-05-15T20:02:05.254Z,23.90
2018-05-15T20:04:33.496Z,23.90
2018-05-15T20:07:02.632Z,23.80
2018-05-15T20:09:30.901Z,23.80
2018-05-15T20:11:59.152Z,23.80
2018-05-15T20:14:28.193Z,23.60
2018-05-15T20:16:56.468Z,23.60
2018-05-15T20:19:24.723Z,23.50
2018-05-15T20:21:53.733Z,23.40
2018-05-15T20:24:21.990Z,23.40
2018-05-15T20:26:50.989Z,23.30
2018-05-15T20:29:19.997Z,23.30
2018-05-15T20:31:48.307Z,23.30
2018-05-15T20:34:16.617Z,23.30
2018-05-15T20:36:44.988Z,23.20
2018-05-15T20:39:13.338Z,23.20
2018-05-15T20:41:41.622Z,23.10
2018-05-15T20:44:09.857Z,23.10
2018-05-15T20:46:38.133Z,23.10
2018-05-15T20:49:07.899Z,23.10
2018-05-15T20:51:36.172Z,23.00
2018-05-15T20:54:05.169Z,23.10
2018-05-15T20:56:33.422Z,23.00
2018-05-15T20:59:02.421Z,23.10
2018-05-15T21:01:32.457Z,23.20
2018-05-15T21:04:00.774Z,23.10
2018-05-15T21:06:29.093Z,23.20
2018-05-15T21:08:57.496Z,23.20
2018-05-15T21:11:26.543Z,23.10
2018-05-15T21:13:54.838Z,23.10
2018-05-15T21:16:23.088Z,23.10
2018-05-15T21:18:51.321Z,23.10
2018-05-15T21:21:20.324Z,23.10
2018-05-15T21:23:49.358Z,23.00
2018-05-15T21:26:17.609Z,23.00
2018-05-15T21:28:46.629Z,22.90
2018-05-15T21:31:14.872Z,23.00
2018-05-15T21:33:43.165Z,23.00
2018-05-15T21:36:11.434Z,23.00
2018-05-15T21:38:40.474Z,22.90
2018-05-15T21:41:08.714Z,22.90
2018-05-15T21:43:36.959Z,23.00
2018-05-15T21:46:05.301Z,22.90
2018-05-15T21:48:33.473Z,22.80
2018-05-15T21:51:01.720Z,22.70
2018-05-15T21:53:29.967Z,22.60
2018-05-15T21:55:58.220Z,22.50
2018-05-15T21:58:26.497Z,22.40
2018-05-15T22:00:54.727Z,22.40
2018-05-15T22:03:22.989Z,22.30
2018-05-15T22:05:51.269Z,22.30
2018-05-15T22:08:19.525Z,22.20
2018-05-15T22:10:47.795Z,22.10
2018-05-15T22:13:27.993Z,22.00
2018-05-15T22:16:14.308Z,22.00
2018-05-15T22:19:00.570Z,22.00
2018-05-15T22:21:47.720Z,21.90
2018-05-15T22:24:26.282Z,21.90
2018-05-15T22:26:54.552Z,21.90
2018-05-15T22:29:22.803Z,21.80
2018-05-15T22:31:51.020Z,21.80
2018-05-15T22:34:19.272Z,21.80
2018-05-15T22:36:48.281Z,21.60
2018-05-15T22:39:16.538Z,21.60
2018-05-15T22:41:44.837Z,21.70
2018-05-15T22:44:13.032Z,21.70
2018-05-15T22:46:41.293Z,21.60
2018-05-15T22:49:10.309Z,21.60
2018-05-15T22:51:38.568Z,21.50
2018-05-15T22:54:06.820Z,21.50
2018-05-15T22:56:35.113Z,21.60
2018-05-15T22:59:04.133Z,21.20
2018-05-15T23:01:32.389Z,21.60
2018-05-15T23:04:00.611Z,21.70
2018-05-15T23:06:28.901Z,21.70
2018-05-15T23:08:57.153Z,21.70
2018-05-15T23:11:25.409Z,21.80
2018-05-15T23:13:54.405Z,21.80
2018-05-15T23:16:23.449Z,21.80
2018-05-15T23:18:51.693Z,21.80
2018-05-15T23:21:20.685Z,21.80
2018-05-15T23:23:49.728Z,21.90
2018-05-15T23:26:17.989Z,21.80
2018-05-15T23:28:46.256Z,21.90
2018-05-15T23:31:15.247Z,22.00
2018-05-15T23:33:44.270Z,22.00
2018-05-15T23:36:12.562Z,22.00
2018-05-15T23:38:40.808Z,21.90
2018-05-15T23:41:09.822Z,22.10
2018-05-15T23:43:38.168Z,22.10
2018-05-15T23:46:07.916Z,22.30
2018-05-15T23:48:36.176Z,22.30
2018-05-15T23:51:05.184Z,22.40
2018-05-15T23:53:34.172Z,22.40
2018-05-15T23:56:03.188Z,22.40
2018-05-15T23:58:31.480Z,22.40
